createdAt,value
2022-10-22T00:00:09.958Z,100.00
2022-10-22T00:01:48.623Z,100.00
2022-10-22T00:02:36.500Z,100.00
2022-10-22T00:05:03.760Z,100.00
2022-10-22T00:06:48.619Z,100.00
2022-10-22T00:07:30.410Z,100.00
2022-10-22T00:09:56.828Z,100.00
2022-10-22T00:11:48.622Z,100.00
2022-10-22T00:12:23.170Z,100.00
2022-10-22T00:14:50.803Z,100.00
2022-10-22T00:16:48.662Z,100.00
2022-10-22T00:17:20.027Z,100.00
2022-10-22T00:19:47.705Z,100.00
2022-10-22T00:21:48.614Z,100.00
2022-10-22T00:22:14.058Z,100.00
2022-10-22T00:24:40.814Z,100.00
2022-10-22T00:26:48.620Z,100.00
2022-10-22T00:27:09.718Z,100.00
2022-10-22T00:29:36.204Z,100.00
2022-10-22T00:31:48.680Z,100.00
2022-10-22T00:32:03.278Z,100.00
2022-10-22T00:34:29.806Z,100.00
2022-10-22T00:36:48.618Z,100.00
2022-10-22T00:36:56.505Z,100.00
2022-10-22T00:39:24.776Z,100.00
2022-10-22T00:41:48.629Z,100.00
2022-10-22T00:41:52.931Z,100.00
2022-10-22T00:44:57.050Z,100.00
2022-10-22T00:46:48.674Z,100.00
2022-10-22T00:47:25.204Z,100.00
2022-10-22T00:49:53.917Z,100.00
2022-10-22T00:51:48.610Z,100.00
2022-10-22T00:52:22.441Z,100.00
2022-10-22T00:54:49.165Z,100.00
2022-10-22T00:56:48.653Z,100.00
2022-10-22T00:57:16.533Z,100.00
2022-10-22T00:59:43.057Z,100.00
2022-10-22T01:01:48.612Z,100.00
2022-10-22T01:02:09.363Z,100.00
2022-10-22T01:04:35.844Z,100.00
2022-10-22T01:06:48.630Z,100.00
2022-10-22T01:07:02.425Z,100.00
2022-10-22T01:09:43.201Z,100.00
2022-10-22T01:11:48.636Z,100.00
2022-10-22T01:12:22.566Z,100.00
2022-10-22T01:15:23.702Z,100.00
2022-10-22T01:16:48.631Z,100.00
2022-10-22T01:18:49.325Z,100.00
2022-10-22T01:21:25.743Z,100.00
2022-10-22T01:21:48.620Z,100.00
2022-10-22T01:24:15.444Z,100.00
2022-10-22T01:26:57.064Z,100.00
2022-10-22T01:26:57.188Z,100.00
2022-10-22T01:29:33.827Z,100.00
2022-10-22T01:31:48.604Z,100.00
2022-10-22T01:32:04.652Z,100.00
2022-10-22T01:34:33.155Z,100.00
2022-10-22T01:36:48.663Z,100.00
2022-10-22T01:37:01.156Z,100.00
2022-10-22T01:39:30.726Z,100.00
2022-10-22T01:41:48.648Z,100.00
2022-10-22T01:41:57.753Z,100.00
2022-10-22T01:44:29.612Z,100.00
2022-10-22T01:46:49.686Z,100.00
2022-10-22T01:47:17.068Z,100.00
2022-10-22T01:49:56.966Z,100.00
2022-10-22T01:51:48.624Z,100.00
2022-10-22T01:52:29.968Z,100.00
2022-10-22T01:55:09.529Z,100.00
2022-10-22T01:56:48.659Z,100.00
2022-10-22T01:58:00.621Z,100.00
2022-10-22T02:00:27.182Z,100.00
2022-10-22T02:01:48.627Z,100.00
2022-10-22T02:03:05.816Z,100.00
2022-10-22T02:05:44.303Z,100.00
2022-10-22T02:06:48.646Z,100.00
2022-10-22T02:08:21.711Z,100.00
2022-10-22T02:10:50.268Z,100.00
2022-10-22T02:11:48.621Z,100.00
2022-10-22T02:13:23.248Z,100.00
2022-10-22T02:15:51.643Z,100.00
2022-10-22T02:16:48.637Z,100.00
2022-10-22T02:18:22.077Z,100.00
2022-10-22T02:20:49.018Z,100.00
2022-10-22T02:21:48.617Z,100.00
2022-10-22T02:23:15.924Z,100.00
2022-10-22T02:25:46.757Z,100.00
2022-10-22T02:26:48.691Z,100.00
2022-10-22T02:28:52.742Z,100.00
2022-10-22T02:31:27.741Z,100.00
2022-10-22T02:31:48.626Z,100.00
2022-10-22T02:33:57.937Z,100.00
2022-10-22T02:36:25.245Z,100.00
2022-10-22T02:36:50.410Z,100.00
2022-10-22T02:38:52.502Z,100.00
2022-10-22T02:41:19.769Z,100.00
2022-10-22T02:41:48.664Z,100.00
2022-10-22T02:43:53.098Z,100.00
2022-10-22T02:46:19.515Z,100.00
2022-10-22T02:46:48.741Z,100.00
2022-10-22T02:48:48.237Z,100.00
2022-10-22T02:51:14.704Z,100.00
2022-10-22T02:51:48.626Z,100.00
2022-10-22T02:53:41.164Z,100.00
2022-10-22T02:56:07.929Z,100.00
2022-10-22T02:56:48.622Z,100.00
2022-10-22T02:58:34.279Z,100.00
2022-10-22T03:01:00.986Z,100.00
2022-10-22T03:01:48.633Z,100.00
2022-10-22T03:03:27.362Z,100.00
2022-10-22T03:05:53.665Z,100.00
2022-10-22T03:06:48.642Z,100.00
2022-10-22T03:08:20.300Z,100.00
2022-10-22T03:10:46.590Z,100.00
2022-10-22T03:11:48.637Z,100.00
2022-10-22T03:13:12.880Z,100.00
2022-10-22T03:15:39.222Z,100.00
2022-10-22T03:16:48.636Z,100.00
2022-10-22T03:18:05.631Z,100.00
2022-10-22T03:20:31.904Z,100.00
2022-10-22T03:21:48.623Z,100.00
2022-10-22T03:22:58.457Z,100.00
2022-10-22T03:25:27.573Z,100.00
2022-10-22T03:26:48.620Z,100.00
2022-10-22T03:27:56.754Z,100.00
2022-10-22T03:30:23.136Z,100.00
2022-10-22T03:31:48.618Z,100.00
2022-10-22T03:32:49.487Z,100.00
2022-10-22T03:35:15.775Z,100.00
2022-10-22T03:36:48.635Z,100.00
2022-10-22T03:37:42.817Z,100.00
2022-10-22T03:40:11.412Z,100.00
2022-10-22T03:41:48.855Z,100.00
2022-10-22T03:42:38.031Z,100.00
2022-10-22T03:45:05.337Z,100.00
2022-10-22T03:46:48.646Z,100.00
2022-10-22T03:47:31.689Z,100.00
2022-10-22T03:49:58.084Z,100.00
2022-10-22T03:51:48.933Z,100.00
2022-10-22T03:52:24.432Z,100.00
2022-10-22T03:54:50.857Z,100.00
2022-10-22T03:56:48.654Z,100.00
2022-10-22T03:57:17.489Z,100.00
2022-10-22T03:59:45.638Z,100.00
2022-10-22T04:01:48.639Z,100.00
2022-10-22T04:02:13.597Z,100.00
2022-10-22T04:04:40.285Z,100.00
2022-10-22T04:06:48.662Z,100.00
2022-10-22T04:07:07.394Z,100.00
2022-10-22T04:09:34.589Z,100.00
2022-10-22T04:11:48.637Z,100.00
2022-10-22T04:12:01.449Z,100.00
2022-10-22T04:14:28.018Z,100.00
2022-10-22T04:16:48.652Z,100.00
2022-10-22T04:16:54.528Z,100.00
2022-10-22T04:19:20.906Z,100.00
2022-10-22T04:21:47.317Z,100.00
2022-10-22T04:21:48.631Z,100.00
2022-10-22T04:24:14.256Z,100.00
2022-10-22T04:26:41.033Z,100.00
2022-10-22T04:26:48.633Z,100.00
2022-10-22T04:29:10.636Z,100.00
2022-10-22T04:31:40.090Z,100.00
2022-10-22T04:31:48.644Z,100.00
2022-10-22T04:34:06.467Z,100.00
2022-10-22T04:36:34.350Z,100.00
2022-10-22T04:36:48.644Z,100.00
2022-10-22T04:39:01.571Z,100.00
2022-10-22T04:41:34.624Z,100.00
2022-10-22T04:41:48.656Z,100.00
2022-10-22T04:44:02.112Z,100.00
2022-10-22T04:46:31.668Z,100.00
2022-10-22T04:46:48.736Z,100.00
2022-10-22T04:48:58.606Z,100.00
2022-10-22T04:51:27.269Z,100.00
2022-10-22T04:51:48.667Z,100.00
2022-10-22T04:53:54.066Z,100.00
2022-10-22T04:56:26.243Z,100.00
2022-10-22T04:56:48.638Z,100.00
2022-10-22T04:58:59.005Z,100.00
2022-10-22T05:01:27.834Z,100.00
2022-10-22T05:01:50.423Z,23
2022-10-22T05:03:56.146Z,100.00
2022-10-22T05:06:23.985Z,100.00
2022-10-22T05:06:48.625Z,100.00
2022-10-22T05:08:56.486Z,100.00
2022-10-22T05:11:28.231Z,100.00
2022-10-22T05:11:48.900Z,100.00
2022-10-22T05:13:59.286Z,100.00
2022-10-22T05:16:26.355Z,100.00
2022-10-22T05:16:49.302Z,100.00
2022-10-22T05:18:53.335Z,100.00
2022-10-22T05:21:20.753Z,100.00
2022-10-22T05:21:48.664Z,100.00
2022-10-22T05:23:49.361Z,100.00
2022-10-22T05:26:18.886Z,100.00
2022-10-22T05:26:48.703Z,100.00
2022-10-22T05:28:46.639Z,100.00
2022-10-22T05:31:14.202Z,100.00
2022-10-22T05:31:48.655Z,100.00
2022-10-22T05:33:41.850Z,100.00
2022-10-22T05:36:12.351Z,100.00
2022-10-22T05:36:48.690Z,100.00
2022-10-22T05:38:38.702Z,100.00
2022-10-22T05:41:11.534Z,100.00
2022-10-22T05:41:48.848Z,100.00
2022-10-22T05:43:38.592Z,100.00
2022-10-22T05:46:10.481Z,100.00
2022-10-22T05:46:48.739Z,100.00
2022-10-22T05:48:37.527Z,100.00
2022-10-22T05:51:06.185Z,100.00
2022-10-22T05:51:48.687Z,100.00
2022-10-22T05:53:33.609Z,100.00
2022-10-22T05:56:05.094Z,100.00
2022-10-22T05:56:48.641Z,100.00
2022-10-22T05:58:31.704Z,100.00
2022-10-22T06:01:05.911Z,100.00
2022-10-22T06:01:49.776Z,100.00
2022-10-22T06:03:33.080Z,100.00
2022-10-22T06:06:01.903Z,100.00
2022-10-22T06:06:48.759Z,100.00
2022-10-22T06:08:30.090Z,100.00
2022-10-22T06:10:57.045Z,100.00
2022-10-22T06:11:48.653Z,100.00
2022-10-22T06:13:23.450Z,100.00
2022-10-22T06:15:50.915Z,100.00
2022-10-22T06:16:48.675Z,100.00
2022-10-22T06:18:17.209Z,100.00
2022-10-22T06:20:45.318Z,100.00
2022-10-22T06:21:48.665Z,100.00
2022-10-22T06:23:11.626Z,100.00
2022-10-22T06:25:38.215Z,100.00
2022-10-22T06:26:48.664Z,100.00
2022-10-22T06:28:04.772Z,100.00
2022-10-22T06:30:31.189Z,100.00
2022-10-22T06:31:48.653Z,100.00
2022-10-22T06:32:57.557Z,100.00
2022-10-22T06:35:23.880Z,100.00
2022-10-22T06:36:48.675Z,100.00
2022-10-22T06:37:56.287Z,100.00
2022-10-22T06:40:23.276Z,100.00
2022-10-22T06:41:48.824Z,100.00
2022-10-22T06:42:49.574Z,100.00
2022-10-22T06:45:15.963Z,100.00
2022-10-22T06:46:48.753Z,100.00
2022-10-22T06:47:44.684Z,100.00
2022-10-22T06:50:10.993Z,100.00
2022-10-22T06:51:48.663Z,100.00
2022-10-22T06:52:37.497Z,100.00
2022-10-22T06:55:04.264Z,100.00
2022-10-22T06:56:48.662Z,100.00
2022-10-22T06:57:33.312Z,100.00
2022-10-22T06:59:59.756Z,100.00
2022-10-22T07:01:48.705Z,100.00
2022-10-22T07:02:26.174Z,100.00
2022-10-22T07:04:55.957Z,100.00
2022-10-22T07:06:48.667Z,100.00
2022-10-22T07:07:22.233Z,100.00
2022-10-22T07:09:50.585Z,100.00
2022-10-22T07:11:48.705Z,100.00
2022-10-22T07:12:18.249Z,100.00
2022-10-22T07:14:44.657Z,100.00
2022-10-22T07:16:50.964Z,100.00
2022-10-22T07:17:10.989Z,100.00
2022-10-22T07:19:37.389Z,100.00
2022-10-22T07:21:48.639Z,100.00
2022-10-22T07:22:04.024Z,100.00
2022-10-22T07:24:30.369Z,100.00
2022-10-22T07:26:48.672Z,100.00
2022-10-22T07:26:57.445Z,100.00
2022-10-22T07:29:24.059Z,100.00
2022-10-22T07:31:48.708Z,100.00
2022-10-22T07:31:50.507Z,100.00
2022-10-22T07:34:17.106Z,100.00
2022-10-22T07:36:43.421Z,100.00
2022-10-22T07:36:48.655Z,100.00
2022-10-22T07:39:09.774Z,100.00
2022-10-22T07:41:36.210Z,100.00
2022-10-22T07:41:48.830Z,100.00
2022-10-22T07:44:02.635Z,100.00
2022-10-22T07:46:29.249Z,100.00
2022-10-22T07:46:49.086Z,100.00
2022-10-22T07:48:55.701Z,100.00
2022-10-22T07:51:22.355Z,100.00
2022-10-22T07:51:48.764Z,100.00
2022-10-22T07:53:57.762Z,100.00
2022-10-22T07:56:25.607Z,100.00
2022-10-22T07:56:49.694Z,100.00
2022-10-22T07:58:52.060Z,100.00
2022-10-22T08:01:18.660Z,100.00
2022-10-22T08:01:48.655Z,100.00
2022-10-22T08:03:45.044Z,100.00
2022-10-22T08:06:13.586Z,100.00
2022-10-22T08:06:48.671Z,100.00
2022-10-22T08:08:39.954Z,100.00
2022-10-22T08:11:06.775Z,100.00
2022-10-22T08:11:48.656Z,100.00
2022-10-22T08:13:33.171Z,100.00
2022-10-22T08:16:03.024Z,100.00
2022-10-22T08:16:51.331Z,100.00
2022-10-22T08:18:29.896Z,100.00
2022-10-22T08:20:57.235Z,100.00
2022-10-22T08:21:48.693Z,100.00
2022-10-22T08:23:28.392Z,100.00
2022-10-22T08:25:56.243Z,100.00
2022-10-22T08:26:48.659Z,100.00
2022-10-22T08:28:22.862Z,100.00
2022-10-22T08:30:49.332Z,100.00
2022-10-22T08:31:48.684Z,100.00
2022-10-22T08:33:15.657Z,100.00
2022-10-22T08:35:42.102Z,100.00
2022-10-22T08:36:48.670Z,100.00
2022-10-22T08:38:08.417Z,100.00
2022-10-22T08:40:40.180Z,100.00
2022-10-22T08:41:48.846Z,100.00
2022-10-22T08:43:20.308Z,100.00
2022-10-22T08:45:59.845Z,100.00
2022-10-22T08:46:49.743Z,100.00
2022-10-22T08:48:38.574Z,100.00
2022-10-22T08:51:05.747Z,100.00
2022-10-22T08:51:48.643Z,100.00
2022-10-22T08:53:41.824Z,100.00
2022-10-22T08:56:10.785Z,100.00
2022-10-22T08:56:48.671Z,100.00
2022-10-22T08:58:57.029Z,100.00
2022-10-22T09:01:46.848Z,100.00
2022-10-22T09:01:48.649Z,100.00
2022-10-22T09:05:33.661Z,100.00
2022-10-22T09:06:50.829Z,100.00
2022-10-22T09:08:00.099Z,100.00
2022-10-22T09:10:33.021Z,100.00
2022-10-22T09:11:48.656Z,100.00
2022-10-22T09:12:59.490Z,100.00
2022-10-22T09:15:26.900Z,100.00
2022-10-22T09:16:48.683Z,100.00
2022-10-22T09:18:02.942Z,100.00
2022-10-22T09:20:48.198Z,100.00
2022-10-22T09:21:48.676Z,100.00
2022-10-22T09:23:29.442Z,100.00
2022-10-22T09:25:57.737Z,100.00
2022-10-22T09:26:48.732Z,100.00
2022-10-22T09:28:24.233Z,100.00
2022-10-22T09:30:50.968Z,100.00
2022-10-22T09:31:50.949Z,100.00
2022-10-22T09:33:27.109Z,100.00
2022-10-22T09:35:56.405Z,100.00
2022-10-22T09:36:48.664Z,100.00
2022-10-22T09:38:29.962Z,100.00
2022-10-22T09:40:58.395Z,100.00
2022-10-22T09:41:48.714Z,100.00
2022-10-22T09:43:24.724Z,100.00
2022-10-22T09:46:07.170Z,100.00
2022-10-22T09:46:48.720Z,100.00
2022-10-22T09:48:39.070Z,100.00
2022-10-22T09:51:54.205Z,100.00
2022-10-22T09:51:54.381Z,100.00
2022-10-22T09:54:24.234Z,100.00
2022-10-22T09:56:48.676Z,100.00
2022-10-22T09:56:58.201Z,100.00
2022-10-22T09:59:28.980Z,100.00
2022-10-22T10:01:48.684Z,100.00
2022-10-22T10:02:33.583Z,100.00
2022-10-22T10:05:07.870Z,100.00
2022-10-22T10:06:48.675Z,100.00
2022-10-22T10:07:35.890Z,100.00
2022-10-22T10:10:16.570Z,100.00
2022-10-22T10:11:48.674Z,100.00
2022-10-22T10:12:52.425Z,100.00
2022-10-22T10:15:29.688Z,100.00
2022-10-22T10:16:48.710Z,100.00
2022-10-22T10:18:30.554Z,100.00
2022-10-22T10:21:48.684Z,100.00
2022-10-22T10:24:13.614Z,100.00
2022-10-22T10:26:58.351Z,100.00
2022-10-22T10:26:58.490Z,100.00
2022-10-22T10:29:55.023Z,100.00
2022-10-22T10:31:48.685Z,100.00
2022-10-22T10:32:49.938Z,100.00
2022-10-22T10:35:27.836Z,100.00
2022-10-22T10:36:48.748Z,100.00
2022-10-22T10:38:12.964Z,100.00
2022-10-22T10:40:59.936Z,100.00
2022-10-22T10:41:48.717Z,100.00
2022-10-22T10:43:35.418Z,100.00
2022-10-22T10:46:08.965Z,100.00
2022-10-22T10:46:50.771Z,100.00
2022-10-22T10:48:56.022Z,100.00
2022-10-22T10:51:42.599Z,100.00
2022-10-22T10:51:48.669Z,100.00
2022-10-22T10:54:42.575Z,100.00
2022-10-22T10:56:48.682Z,100.00
2022-10-22T10:57:46.531Z,100.00
2022-10-22T11:00:33.202Z,100.00
2022-10-22T11:01:48.727Z,100.00
2022-10-22T11:03:14.372Z,100.00
2022-10-22T11:05:55.692Z,100.00
2022-10-22T11:06:48.700Z,100.00
2022-10-22T11:08:22.138Z,100.00
2022-10-22T11:10:56.421Z,100.00
2022-10-22T11:11:48.679Z,100.00
2022-10-22T11:13:29.289Z,100.00
2022-10-22T11:16:16.522Z,100.00
2022-10-22T11:16:48.677Z,100.00
2022-10-22T11:19:05.954Z,100.00
2022-10-22T11:21:38.099Z,100.00
2022-10-22T11:21:48.686Z,100.00
2022-10-22T11:24:27.594Z,100.00
2022-10-22T11:26:48.684Z,100.00
2022-10-22T11:27:19.105Z,100.00
2022-10-22T11:29:50.018Z,100.00
2022-10-22T11:31:48.676Z,100.00
2022-10-22T11:32:19.742Z,100.00
2022-10-22T11:34:54.186Z,100.00
2022-10-22T11:36:48.716Z,100.00
2022-10-22T11:37:24.465Z,99.41
2022-10-22T11:39:53.920Z,100.00
2022-10-22T11:41:48.940Z,100.00
2022-10-22T11:42:33.114Z,99.44
2022-10-22T11:45:06.858Z,99.75
2022-10-22T11:46:50.848Z,99.75
2022-10-22T11:47:41.935Z,99.64
2022-10-22T11:50:25.021Z,99.00
2022-10-22T11:51:48.692Z,99.00
2022-10-22T11:55:50.554Z,98.54
2022-10-22T11:56:48.695Z,98.54
2022-10-22T11:58:39.431Z,99.51
2022-10-22T12:01:39.753Z,99.78
2022-10-22T12:01:48.718Z,99.78
2022-10-22T12:04:18.651Z,99.38
2022-10-22T12:06:57.121Z,97.56
2022-10-22T12:06:57.252Z,97.56
2022-10-22T12:09:26.585Z,95.90
2022-10-22T12:11:48.671Z,95.90
2022-10-22T12:11:53.353Z,95.86
2022-10-22T12:14:27.943Z,94.71
2022-10-22T12:16:56.208Z,94.71
2022-10-22T12:17:14.293Z,95.63
2022-10-22T12:19:46.313Z,95.75
2022-10-22T12:21:48.706Z,95.75
2022-10-22T12:22:19.392Z,91.56
2022-10-22T12:24:49.505Z,92.49
2022-10-22T12:26:48.683Z,92.49
2022-10-22T12:27:22.681Z,91.81
2022-10-22T12:29:54.679Z,94.15
2022-10-22T12:31:48.684Z,94.15
2022-10-22T12:32:21.208Z,93.54
2022-10-22T12:34:52.113Z,92.39
2022-10-22T12:36:48.718Z,92.39
2022-10-22T12:37:19.028Z,91.92
2022-10-22T12:39:46.618Z,91.12
2022-10-22T12:41:48.720Z,91.12
2022-10-22T12:42:17.895Z,94.58
2022-10-22T12:44:44.906Z,92.92
2022-10-22T12:46:51.745Z,92.92
2022-10-22T12:47:18.954Z,93.79
2022-10-22T12:49:50.255Z,93.22
2022-10-22T12:51:48.761Z,93.22
2022-10-22T12:52:22.750Z,92.75
2022-10-22T12:54:52.529Z,90.05
2022-10-22T12:56:48.703Z,90.05
2022-10-22T12:57:20.966Z,88.39
2022-10-22T12:59:51.029Z,84.46
2022-10-22T13:01:48.741Z,84.46
2022-10-22T13:02:21.651Z,81.48
2022-10-22T13:05:22.528Z,83.52
2022-10-22T13:06:48.696Z,83.52
2022-10-22T13:07:55.060Z,84.36
2022-10-22T13:10:27.270Z,86.63
2022-10-22T13:11:48.691Z,86.63
2022-10-22T13:12:58.365Z,86.26
2022-10-22T13:15:27.607Z,85.52
2022-10-22T13:16:48.694Z,85.52
2022-10-22T13:18:05.751Z,86.56
2022-10-22T13:20:32.662Z,86.84
2022-10-22T13:21:48.736Z,86.84
2022-10-22T13:23:04.012Z,85.22
2022-10-22T13:25:33.322Z,85.98
2022-10-22T13:26:48.703Z,85.98
2022-10-22T13:28:03.929Z,85.73
2022-10-22T13:30:34.043Z,87.40
2022-10-22T13:31:48.712Z,87.40
2022-10-22T13:33:06.448Z,86.64
2022-10-22T13:35:35.917Z,88.06
2022-10-22T13:36:48.706Z,88.06
2022-10-22T13:38:02.513Z,86.28
2022-10-22T13:40:28.940Z,87.43
2022-10-22T13:41:48.886Z,87.43
2022-10-22T13:42:55.280Z,87.42
2022-10-22T13:45:21.769Z,88.22
2022-10-22T13:46:48.824Z,88.22
2022-10-22T13:47:52.062Z,87.78
2022-10-22T13:50:20.562Z,88.01
2022-10-22T13:51:48.704Z,88.01
2022-10-22T13:52:53.768Z,86.37
2022-10-22T13:55:25.483Z,86.69
2022-10-22T13:56:48.806Z,86.69
2022-10-22T13:57:55.285Z,86.96
2022-10-22T14:00:22.882Z,86.20
2022-10-22T14:01:48.804Z,86.20
2022-10-22T14:02:53.209Z,86.08
2022-10-22T14:05:22.897Z,86.00
2022-10-22T14:06:48.705Z,86.00
2022-10-22T14:07:49.444Z,86.83
2022-10-22T14:10:22.017Z,86.04
2022-10-22T14:11:48.767Z,86.04
2022-10-22T14:12:52.422Z,87.30
2022-10-22T14:15:23.838Z,89.15
2022-10-22T14:16:48.703Z,89.15
2022-10-22T14:17:56.173Z,90.18
2022-10-22T14:20:26.528Z,91.12
2022-10-22T14:21:48.705Z,91.12
2022-10-22T14:22:53.145Z,90.46
2022-10-22T14:25:23.208Z,90.16
2022-10-22T14:26:48.716Z,90.16
2022-10-22T14:27:50.340Z,90.18
2022-10-22T14:30:23.505Z,89.30
2022-10-22T14:31:48.727Z,89.30
2022-10-22T14:32:50.476Z,90.30
2022-10-22T14:35:20.194Z,90.81
2022-10-22T14:36:48.707Z,90.81
2022-10-22T14:37:46.896Z,92.72
2022-10-22T14:40:15.902Z,93.89
2022-10-22T14:41:48.785Z,93.89
2022-10-22T14:42:45.549Z,95.24
2022-10-22T14:45:26.499Z,93.47
2022-10-22T14:46:48.803Z,93.47
2022-10-22T14:47:58.783Z,91.13
2022-10-22T14:50:25.456Z,90.23
2022-10-22T14:51:48.739Z,90.23
2022-10-22T14:52:52.013Z,90.12
2022-10-22T14:55:19.801Z,91.18
2022-10-22T14:56:48.720Z,91.18
2022-10-22T14:57:46.259Z,92.53
2022-10-22T15:00:18.044Z,93.87
2022-10-22T15:01:48.717Z,93.87
2022-10-22T15:02:45.379Z,96.22
2022-10-22T15:05:12.169Z,97.55
2022-10-22T15:06:48.736Z,97.55
2022-10-22T15:07:39.584Z,98.70
2022-10-22T15:10:07.367Z,99.31
2022-10-22T15:11:48.709Z,99.31
2022-10-22T15:12:33.797Z,98.68
2022-10-22T15:15:00.289Z,99.14
2022-10-22T15:16:48.723Z,99.14
2022-10-22T15:17:26.619Z,100.00
2022-10-22T15:19:53.244Z,100.00
2022-10-22T15:21:48.724Z,100.00
2022-10-22T15:22:19.684Z,100.00
2022-10-22T15:24:46.056Z,100.00
2022-10-22T15:26:48.703Z,100.00
2022-10-22T15:27:14.958Z,100.00
2022-10-22T15:29:42.240Z,100.00
2022-10-22T15:31:48.740Z,100.00
2022-10-22T15:32:12.728Z,100.00
2022-10-22T15:34:41.962Z,100.00
2022-10-22T15:36:48.748Z,100.00
2022-10-22T15:37:11.904Z,100.00
2022-10-22T15:39:42.203Z,100.00
2022-10-22T15:41:48.896Z,100.00
2022-10-22T15:42:09.807Z,100.00
2022-10-22T15:44:36.384Z,100.00
2022-10-22T15:47:04.193Z,100.00
2022-10-22T15:49:30.548Z,100.00
2022-10-22T15:51:48.713Z,100.00
2022-10-22T15:51:56.954Z,100.00
2022-10-22T15:54:26.310Z,100.00
2022-10-22T15:56:48.731Z,100.00
2022-10-22T15:56:52.688Z,100.00
2022-10-22T15:59:19.125Z,100.00
2022-10-22T16:01:45.446Z,100.00
2022-10-22T16:01:48.719Z,100.00
2022-10-22T16:04:12.094Z,100.00
2022-10-22T16:06:44.604Z,100.00
2022-10-22T16:06:48.739Z,100.00
2022-10-22T16:09:14.010Z,100.00
2022-10-22T16:11:41.716Z,100.00
2022-10-22T16:11:48.867Z,100.00
2022-10-22T16:14:10.199Z,100.00
2022-10-22T16:16:39.330Z,100.00
2022-10-22T16:16:48.742Z,100.00
2022-10-22T16:19:06.541Z,100.00
2022-10-22T16:21:32.865Z,100.00
2022-10-22T16:21:48.718Z,100.00
2022-10-22T16:24:05.919Z,100.00
2022-10-22T16:26:33.665Z,100.00
2022-10-22T16:26:48.735Z,100.00
2022-10-22T16:29:02.712Z,100.00
2022-10-22T16:31:29.061Z,100.00
2022-10-22T16:31:48.727Z,100.00
2022-10-22T16:33:55.829Z,100.00
2022-10-22T16:36:22.401Z,100.00
2022-10-22T16:36:48.769Z,100.00
2022-10-22T16:38:48.897Z,100.00
2022-10-22T16:41:18.022Z,100.00
2022-10-22T16:41:48.793Z,100.00
2022-10-22T16:43:50.793Z,100.00
2022-10-22T16:46:19.111Z,100.00
2022-10-22T16:46:48.782Z,100.00
2022-10-22T16:48:47.107Z,100.00
2022-10-22T16:51:15.350Z,100.00
2022-10-22T16:51:48.733Z,100.00
2022-10-22T16:53:41.775Z,100.00
2022-10-22T16:56:10.304Z,100.00
2022-10-22T16:56:48.762Z,100.00
2022-10-22T16:58:37.238Z,100.00
2022-10-22T17:01:08.142Z,100.00
2022-10-22T17:01:48.745Z,100.00
2022-10-22T17:03:35.080Z,100.00
2022-10-22T17:06:03.711Z,100.00
2022-10-22T17:06:48.745Z,100.00
2022-10-22T17:08:31.750Z,100.00
2022-10-22T17:10:58.161Z,100.00
2022-10-22T17:11:48.740Z,100.00
2022-10-22T17:13:24.554Z,100.00
2022-10-22T17:15:50.855Z,100.00
2022-10-22T17:16:48.766Z,100.00
2022-10-22T17:18:17.360Z,100.00
2022-10-22T17:20:43.767Z,100.00
2022-10-22T17:21:48.742Z,100.00
2022-10-22T17:23:10.177Z,100.00
2022-10-22T17:25:42.578Z,100.00
2022-10-22T17:26:48.746Z,100.00
2022-10-22T17:28:10.389Z,100.00
2022-10-22T17:30:38.935Z,100.00
2022-10-22T17:31:48.727Z,100.00
2022-10-22T17:33:07.073Z,100.00
2022-10-22T17:35:34.989Z,100.00
2022-10-22T17:36:48.745Z,100.00
2022-10-22T17:38:01.518Z,100.00
2022-10-22T17:40:30.871Z,100.00
2022-10-22T17:41:48.776Z,100.00
2022-10-22T17:42:57.257Z,100.00
2022-10-22T17:45:23.908Z,100.00
2022-10-22T17:46:48.788Z,100.00
2022-10-22T17:47:52.006Z,100.00
2022-10-22T17:50:19.583Z,100.00
2022-10-22T17:51:48.862Z,100.00
2022-10-22T17:52:45.902Z,100.00
2022-10-22T17:55:13.435Z,100.00
2022-10-22T17:56:48.753Z,100.00
2022-10-22T17:57:39.905Z,100.00
2022-10-22T18:00:06.855Z,100.00
2022-10-22T18:01:48.804Z,100.00
2022-10-22T18:02:33.251Z,100.00
2022-10-22T18:04:59.593Z,100.00
2022-10-22T18:06:48.866Z,100.00
2022-10-22T18:07:26.397Z,100.00
2022-10-22T18:09:52.962Z,100.00
2022-10-22T18:11:48.735Z,100.00
2022-10-22T18:12:19.354Z,100.00
2022-10-22T18:14:47.000Z,100.00
2022-10-22T18:16:48.780Z,100.00
2022-10-22T18:19:41.306Z,100.00
2022-10-22T18:21:48.750Z,100.00
2022-10-22T18:22:07.882Z,100.00
2022-10-22T18:24:38.839Z,100.00
2022-10-22T18:26:48.779Z,100.00
2022-10-22T18:27:05.293Z,100.00
2022-10-22T18:29:31.667Z,100.00
2022-10-22T18:31:48.796Z,100.00
2022-10-22T18:31:57.965Z,100.00
2022-10-22T18:34:26.593Z,100.00
2022-10-22T18:36:48.803Z,100.00
2022-10-22T18:36:53.180Z,100.00
2022-10-22T18:39:19.642Z,100.00
2022-10-22T18:41:46.398Z,100.00
2022-10-22T18:41:48.824Z,100.00
2022-10-22T18:44:14.473Z,100.00
2022-10-22T18:46:40.954Z,100.00
2022-10-22T18:46:48.883Z,100.00
2022-10-22T18:49:07.952Z,100.00
2022-10-22T18:51:35.574Z,100.00
2022-10-22T18:51:48.861Z,100.00
2022-10-22T18:54:21.677Z,100.00
2022-10-22T18:56:49.364Z,100.00
2022-10-22T18:56:49.879Z,100.00
2022-10-22T18:59:23.902Z,100.00
2022-10-22T19:01:48.883Z,100.00
2022-10-22T19:01:55.579Z,100.00
2022-10-22T19:04:24.074Z,100.00
2022-10-22T19:06:48.917Z,100.00
2022-10-22T19:06:50.420Z,100.00
2022-10-22T19:09:17.345Z,100.00
2022-10-22T19:11:44.921Z,100.00
2022-10-22T19:11:48.924Z,100.00
2022-10-22T19:14:13.997Z,100.00
2022-10-22T19:16:40.419Z,100.00
2022-10-22T19:16:48.952Z,100.00
2022-10-22T19:19:08.191Z,100.00
2022-10-22T19:21:35.094Z,100.00
2022-10-22T19:21:48.946Z,100.00
2022-10-22T19:24:02.218Z,100.00
2022-10-22T19:26:30.434Z,100.00
2022-10-22T19:26:49.034Z,100.00
2022-10-22T19:28:57.949Z,100.00
2022-10-22T19:31:26.304Z,100.00
2022-10-22T19:31:48.998Z,100.00
2022-10-22T19:33:55.206Z,100.00
2022-10-22T19:36:27.589Z,100.00
2022-10-22T19:36:49.027Z,100.00
2022-10-22T19:38:54.373Z,100.00
2022-10-22T19:41:22.400Z,100.00
2022-10-22T19:41:49.260Z,100.00
2022-10-22T19:43:50.564Z,100.00
2022-10-22T19:46:18.020Z,100.00
2022-10-22T19:46:50.117Z,100.00
2022-10-22T19:51:21.946Z,100.00
2022-10-22T19:51:49.071Z,100.00
2022-10-22T19:53:49.181Z,100.00
2022-10-22T19:56:20.466Z,100.00
2022-10-22T19:56:49.144Z,100.00
2022-10-22T19:58:47.077Z,100.00
2022-10-22T20:01:15.424Z,100.00
2022-10-22T20:01:49.113Z,100.00
2022-10-22T20:03:42.305Z,100.00
2022-10-22T20:06:10.884Z,100.00
2022-10-22T20:06:49.126Z,100.00
2022-10-22T20:08:37.891Z,100.00
2022-10-22T20:11:07.006Z,100.00
2022-10-22T20:11:49.150Z,100.00
2022-10-22T20:13:35.077Z,100.00
2022-10-22T20:16:01.696Z,100.00
2022-10-22T20:16:49.190Z,100.00
2022-10-22T20:18:28.097Z,100.00
2022-10-22T20:20:54.569Z,100.00
2022-10-22T20:21:49.294Z,100.00
2022-10-22T20:23:20.994Z,100.00
2022-10-22T20:25:48.111Z,100.00
2022-10-22T20:26:49.218Z,100.00
2022-10-22T20:28:15.222Z,100.00
2022-10-22T20:30:42.961Z,100.00
2022-10-22T20:31:49.261Z,100.00
2022-10-22T20:33:09.324Z,100.00
2022-10-22T20:35:36.766Z,100.00
2022-10-22T20:36:49.247Z,100.00
2022-10-22T20:38:04.737Z,100.00
2022-10-22T20:40:32.242Z,100.00
2022-10-22T20:41:49.307Z,100.00
2022-10-22T20:43:00.657Z,100.00
2022-10-22T20:45:27.696Z,100.00
2022-10-22T20:46:49.463Z,100.00
2022-10-22T20:48:02.124Z,100.00
2022-10-22T20:50:31.959Z,100.00
2022-10-22T20:51:49.320Z,100.00
2022-10-22T20:52:59.109Z,100.00
2022-10-22T20:55:27.538Z,100.00
2022-10-22T20:56:49.356Z,100.00
2022-10-22T20:57:53.986Z,100.00
2022-10-22T21:00:20.625Z,100.00
2022-10-22T21:01:49.443Z,100.00
2022-10-22T21:02:47.115Z,100.00
2022-10-22T21:05:13.571Z,100.00
2022-10-22T21:06:49.375Z,100.00